createdAt,value
2018-12-15T00:01:52.440Z,29.27
2018-12-15T00:04:21.039Z,28.50
2018-12-15T00:06:49.695Z,27.63
2018-12-15T00:09:18.224Z,26.97
2018-12-15T00:11:46.748Z,27.17
2018-12-15T00:14:15.416Z,26.10
2018-12-15T00:16:44.059Z,24.83
2018-12-15T00:19:12.670Z,25.60
2018-12-15T00:21:41.394Z,24.67
2018-12-15T00:24:10.328Z,24.80
2018-12-15T00:26:39.236Z,24.20
2018-12-15T00:29:07.952Z,24.20
2018-12-15T00:31:36.584Z,24.60
2018-12-15T00:34:05.451Z,24.77
2018-12-15T00:36:34.061Z,24.77
2018-12-15T00:39:02.570Z,25.30
2018-12-15T00:41:31.444Z,25.83
2018-12-15T00:44:00.202Z,26.70
2018-12-15T00:46:28.776Z,27.20
2018-12-15T00:48:57.592Z,26.57
2018-12-15T00:51:26.967Z,26.50
2018-12-15T00:53:55.608Z,26.77
2018-12-15T00:56:24.367Z,26.90
2018-12-15T00:58:52.990Z,28.10
2018-12-15T01:01:21.678Z,27.03
2018-12-15T01:03:50.404Z,27.77
2018-12-15T01:06:18.961Z,28.00
2018-12-15T01:08:47.722Z,28.10
2018-12-15T01:11:16.331Z,29.23
2018-12-15T01:13:44.968Z,29.03
2018-12-15T01:16:13.801Z,31.40
2018-12-15T01:18:42.446Z,30.90
2018-12-15T01:21:11.087Z,31.57
2018-12-15T01:23:39.788Z,31.60
2018-12-15T01:26:08.462Z,31.37
2018-12-15T01:28:37.189Z,29.00
2018-12-15T01:31:06.162Z,31.10
2018-12-15T01:33:34.723Z,29.43
2018-12-15T01:36:03.237Z,28.27
2018-12-15T01:38:32.120Z,27.90
2018-12-15T01:41:00.643Z,25.90
2018-12-15T01:43:29.331Z,28.70
2018-12-15T01:45:58.193Z,26.73
2018-12-15T01:48:26.812Z,26.17
2018-12-15T01:50:55.520Z,25.93
2018-12-15T01:53:24.464Z,25.27
2018-12-15T01:55:53.216Z,25.17
2018-12-15T01:58:21.916Z,22.67
2018-12-15T02:00:50.588Z,22.43
2018-12-15T02:03:19.140Z,22.97
2018-12-15T02:05:47.683Z,22.10
2018-12-15T02:08:16.227Z,22.07
2018-12-15T02:10:45.011Z,21.40
2018-12-15T02:13:13.691Z,21.07
2018-12-15T02:15:42.534Z,18.77
2018-12-15T02:18:11.941Z,16.97
2018-12-15T02:20:40.594Z,16.53
2018-12-15T02:23:09.356Z,16.17
2018-12-15T02:25:38.014Z,16.47
2018-12-15T02:28:06.697Z,16.20
2018-12-15T02:30:35.291Z,16.30
2018-12-15T02:33:03.823Z,15.43
2018-12-15T02:35:32.515Z,15.60
2018-12-15T02:38:01.111Z,15.00
2018-12-15T02:40:29.691Z,15.73
2018-12-15T02:42:58.307Z,16.37
2018-12-15T02:45:28.092Z,14.63
2018-12-15T02:47:56.694Z,15.73
2018-12-15T02:50:25.231Z,15.70
2018-12-15T02:52:54.128Z,15.93
2018-12-15T02:55:22.683Z,15.63
2018-12-15T02:57:51.333Z,15.43
2018-12-15T03:00:19.914Z,14.67
2018-12-15T03:02:48.393Z,15.00
2018-12-15T03:05:17.036Z,15.57
2018-12-15T03:07:45.630Z,15.47
2018-12-15T03:10:14.209Z,14.73
2018-12-15T03:12:42.927Z,15.63
2018-12-15T03:15:11.794Z,15.13
2018-12-15T03:17:40.240Z,16.10
2018-12-15T03:20:08.700Z,14.53
2018-12-15T03:22:37.208Z,15.40
2018-12-15T03:25:06.081Z,15.57
2018-12-15T03:27:34.619Z,14.80
2018-12-15T03:30:03.478Z,13.53
2018-12-15T03:32:32.036Z,15.07
2018-12-15T03:35:01.002Z,15.67
2018-12-15T03:37:29.724Z,14.30
2018-12-15T03:39:58.265Z,15.47
2018-12-15T03:42:27.250Z,15.07
2018-12-15T03:44:56.095Z,14.57
2018-12-15T03:47:24.723Z,15.50
2018-12-15T03:49:53.348Z,15.17
2018-12-15T03:52:21.942Z,14.30
2018-12-15T03:54:50.409Z,14.10
2018-12-15T03:57:19.021Z,15.13
2018-12-15T03:59:47.685Z,15.47
2018-12-15T04:02:16.386Z,14.07
2018-12-15T04:04:45.345Z,13.70
2018-12-15T04:07:13.995Z,14.50
2018-12-15T04:09:42.544Z,13.77
2018-12-15T04:12:11.281Z,14.97
2018-12-15T04:14:39.866Z,14.20
2018-12-15T04:17:08.377Z,14.03
2018-12-15T04:19:36.830Z,14.50
2018-12-15T04:22:21.058Z,14.77
2018-12-15T04:24:49.868Z,13.90
2018-12-15T04:27:18.588Z,14.70
2018-12-15T04:29:47.294Z,15.10
2018-12-15T04:32:15.742Z,15.00
2018-12-15T04:34:44.246Z,15.50
2018-12-15T04:37:12.874Z,16.17
2018-12-15T04:39:41.313Z,15.97
2018-12-15T04:42:09.821Z,15.90
2018-12-15T04:44:38.389Z,15.53
2018-12-15T04:47:07.398Z,15.13
2018-12-15T04:49:35.991Z,15.37
2018-12-15T04:52:05.145Z,14.60
2018-12-15T04:54:34.085Z,15.00
2018-12-15T04:57:02.659Z,13.60
2018-12-15T04:59:31.466Z,14.93
2018-12-15T05:02:00.011Z,13.43
2018-12-15T05:04:28.653Z,14.50
2018-12-15T05:06:57.565Z,13.97
2018-12-15T05:09:26.269Z,14.10
2018-12-15T05:11:54.884Z,14.13
2018-12-15T05:14:23.526Z,14.03
2018-12-15T05:16:52.128Z,15.07
2018-12-15T05:19:20.682Z,13.77
2018-12-15T05:21:49.847Z,13.27
2018-12-15T05:24:18.485Z,14.27
2018-12-15T05:26:47.116Z,14.60
2018-12-15T05:29:15.765Z,14.10
2018-12-15T05:31:44.501Z,14.93
2018-12-15T05:34:13.054Z,13.23
2018-12-15T05:36:42.514Z,15.13
2018-12-15T05:39:11.558Z,14.90
2018-12-15T05:41:40.298Z,14.00
2018-12-15T05:44:08.852Z,13.57
2018-12-15T05:46:38.845Z,13.87
2018-12-15T05:49:07.719Z,14.27
2018-12-15T05:51:36.198Z,15.07
2018-12-15T05:54:04.932Z,14.90
2018-12-15T05:56:33.419Z,13.90
2018-12-15T05:59:02.133Z,16.33
2018-12-15T06:01:31.913Z,15.67
2018-12-15T06:04:00.729Z,15.23
2018-12-15T06:06:29.365Z,16.50
2018-12-15T06:08:58.181Z,14.57
2018-12-15T06:11:26.838Z,14.53
2018-12-15T06:13:55.439Z,14.90
2018-12-15T06:16:24.264Z,13.97
2018-12-15T06:18:52.777Z,14.20
2018-12-15T06:21:21.257Z,16.33
2018-12-15T06:23:50.237Z,16.17
2018-12-15T06:26:18.788Z,15.93
2018-12-15T06:28:47.448Z,14.93
2018-12-15T06:31:16.203Z,15.13
2018-12-15T06:33:45.516Z,15.10
2018-12-15T06:36:14.203Z,13.53
2018-12-15T06:38:43.319Z,13.97
2018-12-15T06:41:11.769Z,14.90
2018-12-15T06:43:40.357Z,14.97
2018-12-15T06:46:09.361Z,15.07
2018-12-15T06:48:38.340Z,14.23
2018-12-15T06:51:07.308Z,15.07
2018-12-15T06:53:36.160Z,15.60
2018-12-15T06:56:04.792Z,14.73
2018-12-15T06:58:33.415Z,15.93
2018-12-15T07:01:02.113Z,16.97
2018-12-15T07:03:30.778Z,15.73
2018-12-15T07:05:59.326Z,16.47
2018-12-15T07:08:29.470Z,15.33
2018-12-15T07:10:58.174Z,17.60
2018-12-15T07:13:27.113Z,16.80
2018-12-15T07:15:55.826Z,11.57
2018-12-15T07:18:24.362Z,10.27
2018-12-15T07:20:52.976Z,12.93
2018-12-15T07:23:22.048Z,11.30
2018-12-15T07:25:50.985Z,12.47
2018-12-15T07:28:19.636Z,14.17
2018-12-15T07:30:48.538Z,14.43
2018-12-15T07:33:17.029Z,14.03
2018-12-15T07:35:45.737Z,14.17
2018-12-15T07:38:14.502Z,14.93
2018-12-15T07:40:42.930Z,15.63
2018-12-15T07:43:11.870Z,16.63
2018-12-15T07:45:42.901Z,17.57
2018-12-15T07:48:11.412Z,18.13
2018-12-15T07:50:40.023Z,14.00
2018-12-15T07:53:08.845Z,14.60
2018-12-15T07:55:43.953Z,14.20
2018-12-15T07:58:12.604Z,17.80
2018-12-15T08:00:47.535Z,16.67
2018-12-15T08:03:16.385Z,16.53
2018-12-15T08:05:44.891Z,16.73
2018-12-15T08:08:13.697Z,16.87
2018-12-15T08:11:51.546Z,15.00
2018-12-15T08:14:20.276Z,10.77
2018-12-15T08:16:49.976Z,9.40
2018-12-15T08:19:18.861Z,9.13
2018-12-15T08:21:47.551Z,9.63
2018-12-15T08:24:16.404Z,13.60
2018-12-15T08:26:44.835Z,13.90
2018-12-15T08:29:13.457Z,21.37
2018-12-15T08:31:42.019Z,16.33
2018-12-15T08:34:10.598Z,14.90
2018-12-15T08:36:39.238Z,15.70
2018-12-15T08:39:08.374Z,14.57
2018-12-15T08:41:37.012Z,14.97
2018-12-15T08:44:05.790Z,12.90
2018-12-15T08:46:34.570Z,15.50
2018-12-15T08:49:04.691Z,14.50
2018-12-15T08:51:33.576Z,15.27
2018-12-15T08:54:02.509Z,15.73
2018-12-15T08:56:31.022Z,13.13
2018-12-15T08:59:00.393Z,11.20
2018-12-15T09:01:29.000Z,12.37
2018-12-15T09:03:57.654Z,12.87
2018-12-15T09:06:26.481Z,12.40
2018-12-15T09:08:55.299Z,15.63
2018-12-15T09:11:23.844Z,10.63
2018-12-15T09:13:52.481Z,11.30
2018-12-15T09:16:26.373Z,11.33
2018-12-15T09:18:52.138Z,13.13
2018-12-15T09:21:20.955Z,13.47
2018-12-15T09:23:49.701Z,17.10
2018-12-15T09:26:18.265Z,14.50
2018-12-15T09:28:46.764Z,14.13
2018-12-15T09:31:15.308Z,15.20
2018-12-15T09:33:43.959Z,12.97
2018-12-15T09:36:12.768Z,12.73
2018-12-15T09:38:41.623Z,14.30
2018-12-15T09:41:10.152Z,12.90
2018-12-15T09:43:38.974Z,13.43
2018-12-15T09:46:07.591Z,14.27
2018-12-15T09:48:36.296Z,18.00
2018-12-15T09:51:05.053Z,14.17
2018-12-15T09:53:33.706Z,12.70
2018-12-15T09:56:02.540Z,15.33
2018-12-15T09:58:31.281Z,15.67
2018-12-15T10:00:59.853Z,16.03
2018-12-15T10:03:28.642Z,13.57
2018-12-15T10:05:57.920Z,14.73
2018-12-15T10:08:26.489Z,15.00
2018-12-15T10:10:55.337Z,13.40
2018-12-15T10:13:23.940Z,13.10
2018-12-15T10:15:52.877Z,12.53
2018-12-15T10:18:22.841Z,14.10
2018-12-15T10:20:52.569Z,13.10
2018-12-15T10:23:24.040Z,11.77
2018-12-15T10:25:53.045Z,11.57
2018-12-15T10:28:21.598Z,10.83
2018-12-15T10:30:55.708Z,12.50
2018-12-15T10:33:24.187Z,13.90
2018-12-15T10:35:53.368Z,12.67
2018-12-15T10:38:22.354Z,12.63
2018-12-15T10:40:51.489Z,14.03
2018-12-15T10:43:20.091Z,16.00
2018-12-15T10:45:49.092Z,16.83
2018-12-15T10:48:17.808Z,11.43
2018-12-15T10:50:46.525Z,13.70
2018-12-15T10:53:15.056Z,12.50
2018-12-15T10:55:44.186Z,12.83
2018-12-15T10:58:13.720Z,13.67
2018-12-15T11:00:48.742Z,13.60
2018-12-15T11:03:17.258Z,12.43
2018-12-15T11:05:45.914Z,13.17
2018-12-15T11:08:15.026Z,12.13
2018-12-15T11:10:43.707Z,12.03
2018-12-15T11:13:12.460Z,13.50
2018-12-15T11:15:41.473Z,14.80
2018-12-15T11:18:10.002Z,15.63
2018-12-15T11:20:38.999Z,15.83
2018-12-15T11:23:07.902Z,17.33
2018-12-15T11:25:36.402Z,13.57
2018-12-15T11:28:05.143Z,14.23
2018-12-15T11:30:34.165Z,12.30
2018-12-15T11:33:03.242Z,15.03
2018-12-15T11:35:32.070Z,14.10
2018-12-15T11:38:00.708Z,12.33
2018-12-15T11:40:29.463Z,11.20
2018-12-15T11:42:58.074Z,11.43
2018-12-15T11:45:27.179Z,12.63
2018-12-15T11:47:55.865Z,12.77
2018-12-15T11:50:24.442Z,13.43
2018-12-15T11:52:53.531Z,12.77
2018-12-15T11:55:23.815Z,15.77
2018-12-15T11:57:52.539Z,12.50
2018-12-15T12:00:21.097Z,11.00
2018-12-15T12:02:50.057Z,14.00
2018-12-15T12:05:18.904Z,20.73
2018-12-15T12:07:47.483Z,15.60
2018-12-15T12:10:16.123Z,18.97
2018-12-15T12:12:44.846Z,22.57
2018-12-15T12:15:13.629Z,14.97
2018-12-15T12:17:42.601Z,16.33
2018-12-15T12:20:11.476Z,11.67
2018-12-15T12:22:40.225Z,16.40
2018-12-15T12:25:09.018Z,18.43
2018-12-15T12:27:38.916Z,21.87
2018-12-15T12:30:08.562Z,17.13
2018-12-15T12:33:25.876Z,18.73
2018-12-15T12:46:11.165Z,14.97
2018-12-15T13:27:05.222Z,13.63
2018-12-15T13:29:52.115Z,14.10
2018-12-15T13:32:32.442Z,15.07
2018-12-15T13:35:15.150Z,15.10
2018-12-15T13:38:07.751Z,13.53
2018-12-15T13:40:45.022Z,19.03
2018-12-15T14:00:49.815Z,13.27
2018-12-15T14:06:47.881Z,15.00
2018-12-15T14:09:23.107Z,14.37
2018-12-15T14:12:07.971Z,12.70
2018-12-15T14:14:43.745Z,13.60
2018-12-15T14:20:17.169Z,15.10
2018-12-15T14:23:11.897Z,16.13
2018-12-15T14:26:00.939Z,14.50
2018-12-15T14:28:42.808Z,15.20
2018-12-15T14:34:26.628Z,15.70
2018-12-15T14:37:15.826Z,15.30
2018-12-15T14:40:09.054Z,15.53
2018-12-15T14:43:07.358Z,14.50
2018-12-15T14:55:44.198Z,20.50
2018-12-15T14:58:23.314Z,16.70
2018-12-15T15:04:32.321Z,19.80
2018-12-15T15:41:39.322Z,17.83
2018-12-15T15:44:28.458Z,17.07
2018-12-15T15:47:25.461Z,17.77
2018-12-15T15:50:19.069Z,15.83
2018-12-15T15:53:12.693Z,15.97
2018-12-15T15:56:01.772Z,16.97
2018-12-15T15:58:51.991Z,22.60
2018-12-15T16:01:56.091Z,34.30
2018-12-15T16:04:38.394Z,17.87
2018-12-15T16:07:26.058Z,20.67
2018-12-15T16:10:10.803Z,19.83
2018-12-15T16:12:57.335Z,15.17
2018-12-15T16:15:49.791Z,16.23
2018-12-15T16:21:52.453Z,16.73
2018-12-15T16:35:07.926Z,18.07
2018-12-15T16:47:27.824Z,19.23
2018-12-15T16:50:13.730Z,19.50
2018-12-15T16:53:36.183Z,19.10
2018-12-15T16:59:58.045Z,18.77
2018-12-15T17:06:03.322Z,17.87
2018-12-15T17:12:30.282Z,15.83
2018-12-15T17:15:32.153Z,16.63
2018-12-15T17:18:25.023Z,15.93
2018-12-15T17:24:47.054Z,15.97
2018-12-15T17:27:33.150Z,16.97
2018-12-15T17:30:25.239Z,16.33
2018-12-15T17:33:20.572Z,15.83
2018-12-15T17:36:19.102Z,17.77
2018-12-15T17:39:13.045Z,18.60
2018-12-15T17:42:21.442Z,17.63
2018-12-15T17:45:07.434Z,17.73
2018-12-15T17:47:48.677Z,17.00
2018-12-15T17:50:47.060Z,24.40
2018-12-15T18:13:53.660Z,17.80
2018-12-15T18:19:58.067Z,17.13
2018-12-15T18:26:48.838Z,20.07
2018-12-15T18:29:53.352Z,21.40
2018-12-15T18:32:49.450Z,21.10
2018-12-15T18:38:48.006Z,25.13
2018-12-15T18:44:33.732Z,34.33
2018-12-15T18:53:28.967Z,66.83
2018-12-15T18:56:36.232Z,43.93
2018-12-15T19:30:37.160Z,25.23
2018-12-15T19:33:29.800Z,26.70
2018-12-15T19:36:20.516Z,29.33
2018-12-15T19:39:13.910Z,29.37
2018-12-15T19:41:54.386Z,25.57
2018-12-15T19:45:00.266Z,24.50
2018-12-15T19:47:53.734Z,27.13
2018-12-15T19:50:51.623Z,27.30
2018-12-15T19:53:41.043Z,27.60
2018-12-15T19:56:25.800Z,26.83
2018-12-15T20:05:46.013Z,29.83
2018-12-15T20:09:17.696Z,29.50
2018-12-15T20:12:26.606Z,29.77
2018-12-15T20:15:47.819Z,30.90
2018-12-15T20:18:48.691Z,29.90
2018-12-15T20:27:34.662Z,29.00
2018-12-15T20:47:50.654Z,27.97
2018-12-15T20:56:47.073Z,30.00
2018-12-15T21:05:55.814Z,28.57
2018-12-15T21:08:45.852Z,28.03
2018-12-15T21:11:41.040Z,29.23
2018-12-15T21:14:37.677Z,28.43
2018-12-15T21:17:29.180Z,25.60
2018-12-15T21:20:22.785Z,27.93
2018-12-15T21:23:08.773Z,24.13
2018-12-15T21:25:56.128Z,25.67
2018-12-15T21:28:46.146Z,25.67
2018-12-15T21:34:48.750Z,29.73
2018-12-15T22:10:10.501Z,21.40
2018-12-15T22:22:03.071Z,27.30
2018-12-15T22:28:14.845Z,23.13
2018-12-15T22:38:32.460Z,24.33
2018-12-15T22:41:24.178Z,23.37
2018-12-15T22:47:11.824Z,22.67
2018-12-15T22:50:01.844Z,23.70
2018-12-15T22:53:07.307Z,21.30
2018-12-15T22:56:10.274Z,20.80
2018-12-15T22:59:12.638Z,22.10
2018-12-15T23:21:57.574Z,21.47
2018-12-15T23:24:52.511Z,22.00
2018-12-15T23:34:14.210Z,20.53
